sensor_id;sensor_type;location;lat;lon;timestamp;P1;durP1;ratioP1;P2;durP2;ratioP2
4563;SDS011;2294;51.818;8.484;2022-11-18T00:00:54;10.37;;;5.80;;
4563;SDS011;2294;51.818;8.484;2022-11-18T00:03:21;6.43;;;5.00;;
4563;SDS011;2294;51.818;8.484;2022-11-18T00:05:52;12.30;;;5.90;;
4563;SDS011;2294;51.818;8.484;2022-11-18T00:08:19;12.50;;;6.10;;
4563;SDS011;2294;51.818;8.484;2022-11-18T00:10:48;7.83;;;5.77;;
4563;SDS011;2294;51.818;8.484;2022-11-18T00:13:15;8.90;;;5.23;;
4563;SDS011;2294;51.818;8.484;2022-11-18T00:16:00;10.00;;;5.50;;
4563;SDS011;2294;51.818;8.484;2022-11-18T00:18:27;9.90;;;5.80;;
4563;SDS011;2294;51.818;8.484;2022-11-18T00:20:54;8.77;;;5.70;;
4563;SDS011;2294;51.818;8.484;2022-11-18T00:23:21;8.13;;;5.10;;
4563;SDS011;2294;51.818;8.484;2022-11-18T00:25:49;12.13;;;5.80;;
4563;SDS011;2294;51.818;8.484;2022-11-18T00:28:16;7.50;;;5.10;;
4563;SDS011;2294;51.818;8.484;2022-11-18T00:30:43;8.70;;;6.17;;
4563;SDS011;2294;51.818;8.484;2022-11-18T00:33:10;7.13;;;5.07;;
4563;SDS011;2294;51.818;8.484;2022-11-18T00:35:36;12.90;;;6.43;;
4563;SDS011;2294;51.818;8.484;2022-11-18T00:38:03;8.40;;;6.20;;
4563;SDS011;2294;51.818;8.484;2022-11-18T00:40:30;11.20;;;5.63;;
4563;SDS011;2294;51.818;8.484;2022-11-18T00:42:58;8.50;;;6.23;;
4563;SDS011;2294;51.818;8.484;2022-11-18T00:45:24;9.13;;;5.73;;
4563;SDS011;2294;51.818;8.484;2022-11-18T00:47:51;8.83;;;6.70;;
4563;SDS011;2294;51.818;8.484;2022-11-18T00:50:18;10.70;;;6.40;;
4563;SDS011;2294;51.818;8.484;2022-11-18T00:52:45;11.63;;;6.00;;
4563;SDS011;2294;51.818;8.484;2022-11-18T00:55:12;11.30;;;6.30;;
4563;SDS011;2294;51.818;8.484;2022-11-18T00:57:39;10.00;;;6.83;;
4563;SDS011;2294;51.818;8.484;2022-11-18T01:00:08;10.77;;;6.93;;
4563;SDS011;2294;51.818;8.484;2022-11-18T01:02:36;13.43;;;7.27;;
4563;SDS011;2294;51.818;8.484;2022-11-18T01:05:03;12.63;;;6.10;;
4563;SDS011;2294;51.818;8.484;2022-11-18T01:07:30;11.67;;;6.90;;
4563;SDS011;2294;51.818;8.484;2022-11-18T01:09:57;8.57;;;7.00;;
4563;SDS011;2294;51.818;8.484;2022-11-18T01:12:24;9.83;;;6.73;;
4563;SDS011;2294;51.818;8.484;2022-11-18T01:15:10;14.03;;;6.93;;
4563;SDS011;2294;51.818;8.484;2022-11-18T01:17:36;9.57;;;6.17;;
4563;SDS011;2294;51.818;8.484;2022-11-18T01:20:04;13.53;;;7.60;;
4563;SDS011;2294;51.818;8.484;2022-11-18T01:22:31;13.83;;;7.10;;
4563;SDS011;2294;51.818;8.484;2022-11-18T01:24:58;9.93;;;6.97;;
4563;SDS011;2294;51.818;8.484;2022-11-18T01:27:25;10.10;;;6.70;;
4563;SDS011;2294;51.818;8.484;2022-11-18T01:29:52;9.50;;;7.07;;
4563;SDS011;2294;51.818;8.484;2022-11-18T01:32:20;9.63;;;6.80;;
4563;SDS011;2294;51.818;8.484;2022-11-18T01:34:47;10.13;;;7.10;;
4563;SDS011;2294;51.818;8.484;2022-11-18T01:37:14;10.07;;;7.07;;
4563;SDS011;2294;51.818;8.484;2022-11-18T01:39:41;10.17;;;6.97;;
4563;SDS011;2294;51.818;8.484;2022-11-18T01:42:10;9.90;;;6.60;;
4563;SDS011;2294;51.818;8.484;2022-11-18T01:44:58;12.40;;;6.57;;
4563;SDS011;2294;51.818;8.484;2022-11-18T01:47:30;8.83;;;5.80;;
4563;SDS011;2294;51.818;8.484;2022-11-18T01:50:00;9.17;;;6.10;;
4563;SDS011;2294;51.818;8.484;2022-11-18T01:52:27;10.17;;;7.10;;
4563;SDS011;2294;51.818;8.484;2022-11-18T01:54:56;10.50;;;7.83;;
4563;SDS011;2294;51.818;8.484;2022-11-18T01:57:27;12.07;;;7.83;;
4563;SDS011;2294;51.818;8.484;2022-11-18T01:59:58;13.23;;;7.60;;
4563;SDS011;2294;51.818;8.484;2022-11-18T02:02:30;11.83;;;7.50;;
4563;SDS011;2294;51.818;8.484;2022-11-18T02:04:59;10.20;;;6.83;;
4563;SDS011;2294;51.818;8.484;2022-11-18T02:07:28;10.40;;;6.43;;
4563;SDS011;2294;51.818;8.484;2022-11-18T02:09:55;10.43;;;7.03;;
4563;SDS011;2294;51.818;8.484;2022-11-18T02:12:23;8.70;;;6.00;;
4563;SDS011;2294;51.818;8.484;2022-11-18T02:14:50;12.67;;;7.27;;
4563;SDS011;2294;51.818;8.484;2022-11-18T02:17:20;14.33;;;7.57;;
4563;SDS011;2294;51.818;8.484;2022-11-18T02:20:06;11.33;;;7.57;;
4563;SDS011;2294;51.818;8.484;2022-11-18T02:23:07;12.17;;;7.07;;
4563;SDS011;2294;51.818;8.484;2022-11-18T02:26:14;16.73;;;7.50;;
4563;SDS011;2294;51.818;8.484;2022-11-18T02:29:17;9.30;;;6.03;;
4563;SDS011;2294;51.818;8.484;2022-11-18T02:31:48;19.23;;;7.80;;
4563;SDS011;2294;51.818;8.484;2022-11-18T02:34:24;10.30;;;7.03;;
4563;SDS011;2294;51.818;8.484;2022-11-18T02:37:03;10.40;;;6.80;;
4563;SDS011;2294;51.818;8.484;2022-11-18T02:39:33;12.87;;;7.47;;
4563;SDS011;2294;51.818;8.484;2022-11-18T02:42:03;17.43;;;7.50;;
4563;SDS011;2294;51.818;8.484;2022-11-18T02:44:35;10.20;;;7.07;;
4563;SDS011;2294;51.818;8.484;2022-11-18T02:47:08;9.53;;;6.67;;
4563;SDS011;2294;51.818;8.484;2022-11-18T02:49:40;11.33;;;7.20;;
4563;SDS011;2294;51.818;8.484;2022-11-18T02:52:10;12.00;;;6.53;;
4563;SDS011;2294;51.818;8.484;2022-11-18T02:54:39;11.10;;;6.57;;
4563;SDS011;2294;51.818;8.484;2022-11-18T02:57:07;11.20;;;7.33;;
4563;SDS011;2294;51.818;8.484;2022-11-18T02:59:35;11.37;;;6.63;;
4563;SDS011;2294;51.818;8.484;2022-11-18T03:02:03;10.67;;;6.80;;
4563;SDS011;2294;51.818;8.484;2022-11-18T03:04:30;12.40;;;6.70;;
4563;SDS011;2294;51.818;8.484;2022-11-18T03:07:00;8.60;;;6.10;;
4563;SDS011;2294;51.818;8.484;2022-11-18T03:09:35;12.40;;;7.17;;
4563;SDS011;2294;51.818;8.484;2022-11-18T03:12:07;11.70;;;6.70;;
4563;SDS011;2294;51.818;8.484;2022-11-18T03:14:42;11.40;;;6.73;;
4563;SDS011;2294;51.818;8.484;2022-11-18T03:17:18;10.80;;;6.67;;
4563;SDS011;2294;51.818;8.484;2022-11-18T03:19:54;9.13;;;6.73;;
4563;SDS011;2294;51.818;8.484;2022-11-18T03:22:32;12.40;;;7.53;;
4563;SDS011;2294;51.818;8.484;2022-11-18T03:25:03;8.77;;;6.13;;
4563;SDS011;2294;51.818;8.484;2022-11-18T03:27:33;9.33;;;6.10;;
4563;SDS011;2294;51.818;8.484;2022-11-18T03:30:07;8.37;;;5.50;;
4563;SDS011;2294;51.818;8.484;2022-11-18T03:32:37;12.10;;;7.03;;
4563;SDS011;2294;51.818;8.484;2022-11-18T03:35:08;8.27;;;6.07;;
4563;SDS011;2294;51.818;8.484;2022-11-18T03:37:39;9.27;;;6.10;;
4563;SDS011;2294;51.818;8.484;2022-11-18T03:40:10;17.43;;;6.33;;
4563;SDS011;2294;51.818;8.484;2022-11-18T03:42:42;10.90;;;7.07;;
4563;SDS011;2294;51.818;8.484;2022-11-18T03:45:15;14.60;;;6.77;;
4563;SDS011;2294;51.818;8.484;2022-11-18T03:47:46;13.50;;;6.87;;
4563;SDS011;2294;51.818;8.484;2022-11-18T03:50:17;14.07;;;7.63;;
4563;SDS011;2294;51.818;8.484;2022-11-18T03:52:47;7.57;;;4.97;;
4563;SDS011;2294;51.818;8.484;2022-11-18T03:55:16;7.10;;;5.77;;
4563;SDS011;2294;51.818;8.484;2022-11-18T03:57:48;8.70;;;5.87;;
4563;SDS011;2294;51.818;8.484;2022-11-18T04:00:21;8.57;;;6.30;;
4563;SDS011;2294;51.818;8.484;2022-11-18T04:02:49;11.70;;;6.67;;
4563;SDS011;2294;51.818;8.484;2022-11-18T04:05:17;10.60;;;6.83;;
4563;SDS011;2294;51.818;8.484;2022-11-18T04:07:48;13.60;;;6.93;;
4563;SDS011;2294;51.818;8.484;2022-11-18T04:10:21;8.90;;;6.83;;
4563;SDS011;2294;51.818;8.484;2022-11-18T04:12:53;10.47;;;7.07;;
4563;SDS011;2294;51.818;8.484;2022-11-18T04:15:27;11.10;;;6.90;;
4563;SDS011;2294;51.818;8.484;2022-11-18T04:17:56;9.07;;;6.43;;
4563;SDS011;2294;51.818;8.484;2022-11-18T04:20:23;9.87;;;6.60;;
4563;SDS011;2294;51.818;8.484;2022-11-18T04:22:52;9.83;;;6.03;;
4563;SDS011;2294;51.818;8.484;2022-11-18T04:25:19;9.07;;;5.97;;
4563;SDS011;2294;51.818;8.484;2022-11-18T04:27:45;8.10;;;6.33;;
4563;SDS011;2294;51.818;8.484;2022-11-18T04:30:12;12.63;;;6.23;;
4563;SDS011;2294;51.818;8.484;2022-11-18T04:32:41;7.73;;;6.00;;
4563;SDS011;2294;51.818;8.484;2022-11-18T04:35:08;9.93;;;6.07;;
4563;SDS011;2294;51.818;8.484;2022-11-18T04:37:34;10.27;;;5.97;;
4563;SDS011;2294;51.818;8.484;2022-11-18T04:40:02;9.77;;;6.33;;
4563;SDS011;2294;51.818;8.484;2022-11-18T04:42:29;9.03;;;6.67;;
4563;SDS011;2294;51.818;8.484;2022-11-18T04:44:56;11.33;;;5.87;;
4563;SDS011;2294;51.818;8.484;2022-11-18T04:47:23;9.90;;;6.33;;
4563;SDS011;2294;51.818;8.484;2022-11-18T04:49:51;12.30;;;6.80;;
4563;SDS011;2294;51.818;8.484;2022-11-18T04:52:18;10.40;;;6.50;;
4563;SDS011;2294;51.818;8.484;2022-11-18T04:54:45;9.53;;;6.57;;
4563;SDS011;2294;51.818;8.484;2022-11-18T04:57:12;12.73;;;7.40;;
4563;SDS011;2294;51.818;8.484;2022-11-18T04:59:39;12.10;;;6.63;;
4563;SDS011;2294;51.818;8.484;2022-11-18T05:02:06;10.53;;;6.80;;
4563;SDS011;2294;51.818;8.484;2022-11-18T05:04:33;11.63;;;7.60;;
4563;SDS011;2294;51.818;8.484;2022-11-18T05:07:02;14.90;;;8.53;;
4563;SDS011;2294;51.818;8.484;2022-11-18T05:09:30;12.37;;;7.43;;
4563;SDS011;2294;51.818;8.484;2022-11-18T05:11:57;10.07;;;6.90;;
4563;SDS011;2294;51.818;8.484;2022-11-18T05:14:41;11.03;;;7.27;;
4563;SDS011;2294;51.818;8.484;2022-11-18T05:17:08;10.47;;;6.63;;
4563;SDS011;2294;51.818;8.484;2022-11-18T05:19:36;11.80;;;7.40;;
4563;SDS011;2294;51.818;8.484;2022-11-18T05:22:05;14.50;;;7.93;;
4563;SDS011;2294;51.818;8.484;2022-11-18T05:24:32;11.43;;;7.10;;
4563;SDS011;2294;51.818;8.484;2022-11-18T05:26:59;10.97;;;7.67;;
4563;SDS011;2294;51.818;8.484;2022-11-18T05:29:26;12.20;;;8.17;;
4563;SDS011;2294;51.818;8.484;2022-11-18T05:31:52;11.13;;;7.20;;
4563;SDS011;2294;51.818;8.484;2022-11-18T05:34:19;16.10;;;9.17;;
4563;SDS011;2294;51.818;8.484;2022-11-18T05:36:46;17.23;;;8.83;;
4563;SDS011;2294;51.818;8.484;2022-11-18T05:39:14;12.03;;;8.03;;
4563;SDS011;2294;51.818;8.484;2022-11-18T05:41:42;14.07;;;7.87;;
4563;SDS011;2294;51.818;8.484;2022-11-18T05:44:26;12.50;;;7.27;;
4563;SDS011;2294;51.818;8.484;2022-11-18T05:46:53;11.50;;;6.93;;
4563;SDS011;2294;51.818;8.484;2022-11-18T05:49:20;15.40;;;8.20;;
4563;SDS011;2294;51.818;8.484;2022-11-18T05:51:47;11.17;;;7.37;;
4563;SDS011;2294;51.818;8.484;2022-11-18T05:54:15;12.53;;;8.47;;
4563;SDS011;2294;51.818;8.484;2022-11-18T05:56:44;12.07;;;7.80;;
4563;SDS011;2294;51.818;8.484;2022-11-18T05:59:11;12.07;;;7.33;;
4563;SDS011;2294;51.818;8.484;2022-11-18T06:01:40;12.50;;;8.13;;
4563;SDS011;2294;51.818;8.484;2022-11-18T06:04:11;14.90;;;7.93;;
4563;SDS011;2294;51.818;8.484;2022-11-18T06:06:41;11.87;;;7.37;;
4563;SDS011;2294;51.818;8.484;2022-11-18T06:09:09;13.07;;;7.97;;
4563;SDS011;2294;51.818;8.484;2022-11-18T06:11:39;11.70;;;7.23;;
4563;SDS011;2294;51.818;8.484;2022-11-18T06:14:09;13.57;;;8.40;;
4563;SDS011;2294;51.818;8.484;2022-11-18T06:16:42;15.93;;;9.17;;
4563;SDS011;2294;51.818;8.484;2022-11-18T06:19:13;10.60;;;7.70;;
4563;SDS011;2294;51.818;8.484;2022-11-18T06:21:40;12.90;;;7.40;;
4563;SDS011;2294;51.818;8.484;2022-11-18T06:24:07;21.97;;;7.43;;
4563;SDS011;2294;51.818;8.484;2022-11-18T06:26:35;11.23;;;7.43;;
4563;SDS011;2294;51.818;8.484;2022-11-18T06:29:03;10.37;;;7.30;;
4563;SDS011;2294;51.818;8.484;2022-11-18T06:31:32;12.50;;;7.90;;
4563;SDS011;2294;51.818;8.484;2022-11-18T06:33:59;13.53;;;8.73;;
4563;SDS011;2294;51.818;8.484;2022-11-18T06:36:25;14.60;;;8.30;;
4563;SDS011;2294;51.818;8.484;2022-11-18T06:38:52;9.10;;;6.73;;
4563;SDS011;2294;51.818;8.484;2022-11-18T06:41:19;9.20;;;6.83;;
4563;SDS011;2294;51.818;8.484;2022-11-18T06:43:46;12.33;;;7.30;;
4563;SDS011;2294;51.818;8.484;2022-11-18T06:46:15;13.90;;;9.87;;
4563;SDS011;2294;51.818;8.484;2022-11-18T06:49:00;11.90;;;7.40;;
4563;SDS011;2294;51.818;8.484;2022-11-18T06:51:28;12.37;;;7.80;;
4563;SDS011;2294;51.818;8.484;2022-11-18T06:53:55;14.43;;;7.73;;
4563;SDS011;2294;51.818;8.484;2022-11-18T06:56:22;12.97;;;7.00;;
4563;SDS011;2294;51.818;8.484;2022-11-18T06:58:51;14.20;;;7.90;;
4563;SDS011;2294;51.818;8.484;2022-11-18T07:01:21;12.43;;;8.00;;
4563;SDS011;2294;51.818;8.484;2022-11-18T07:03:49;12.90;;;8.90;;
4563;SDS011;2294;51.818;8.484;2022-11-18T07:06:17;13.07;;;8.30;;
4563;SDS011;2294;51.818;8.484;2022-11-18T07:08:45;12.43;;;8.83;;
4563;SDS011;2294;51.818;8.484;2022-11-18T07:11:14;19.37;;;9.37;;
4563;SDS011;2294;51.818;8.484;2022-11-18T07:13:43;20.70;;;9.00;;
4563;SDS011;2294;51.818;8.484;2022-11-18T07:16:11;16.33;;;9.03;;
4563;SDS011;2294;51.818;8.484;2022-11-18T07:18:41;18.90;;;9.73;;
4563;SDS011;2294;51.818;8.484;2022-11-18T07:21:10;20.60;;;11.03;;
4563;SDS011;2294;51.818;8.484;2022-11-18T07:23:37;21.80;;;10.60;;
4563;SDS011;2294;51.818;8.484;2022-11-18T07:26:05;15.90;;;8.47;;
4563;SDS011;2294;51.818;8.484;2022-11-18T07:28:32;11.87;;;7.40;;
4563;SDS011;2294;51.818;8.484;2022-11-18T07:31:00;12.67;;;8.07;;
4563;SDS011;2294;51.818;8.484;2022-11-18T07:33:27;12.97;;;7.90;;
4563;SDS011;2294;51.818;8.484;2022-11-18T07:35:58;14.57;;;8.47;;
4563;SDS011;2294;51.818;8.484;2022-11-18T07:38:26;14.53;;;9.40;;
4563;SDS011;2294;51.818;8.484;2022-11-18T07:40:53;15.70;;;8.93;;
4563;SDS011;2294;51.818;8.484;2022-11-18T07:43:20;13.40;;;7.53;;
4563;SDS011;2294;51.818;8.484;2022-11-18T07:45:47;12.43;;;7.30;;
4563;SDS011;2294;51.818;8.484;2022-11-18T07:48:14;15.53;;;8.20;;
4563;SDS011;2294;51.818;8.484;2022-11-18T07:50:40;13.10;;;8.43;;
4563;SDS011;2294;51.818;8.484;2022-11-18T07:53:08;13.23;;;8.57;;
4563;SDS011;2294;51.818;8.484;2022-11-18T07:55:35;17.20;;;8.47;;
4563;SDS011;2294;51.818;8.484;2022-11-18T07:58:02;17.07;;;8.10;;
4563;SDS011;2294;51.818;8.484;2022-11-18T08:00:29;13.30;;;8.93;;
4563;SDS011;2294;51.818;8.484;2022-11-18T08:02:56;15.87;;;9.17;;
4563;SDS011;2294;51.818;8.484;2022-11-18T08:05:23;12.73;;;8.60;;
4563;SDS011;2294;51.818;8.484;2022-11-18T08:07:50;21.17;;;10.53;;
4563;SDS011;2294;51.818;8.484;2022-11-18T08:10:22;16.13;;;9.70;;
4563;SDS011;2294;51.818;8.484;2022-11-18T08:12:51;19.83;;;9.50;;
4563;SDS011;2294;51.818;8.484;2022-11-18T08:15:18;19.73;;;10.33;;
4563;SDS011;2294;51.818;8.484;2022-11-18T08:17:45;16.70;;;10.40;;
4563;SDS011;2294;51.818;8.484;2022-11-18T08:20:12;23.07;;;11.20;;
4563;SDS011;2294;51.818;8.484;2022-11-18T08:22:39;18.33;;;10.63;;
4563;SDS011;2294;51.818;8.484;2022-11-18T08:25:06;21.03;;;11.93;;
4563;SDS011;2294;51.818;8.484;2022-11-18T08:27:35;24.00;;;11.00;;
4563;SDS011;2294;51.818;8.484;2022-11-18T08:30:02;16.23;;;10.80;;
4563;SDS011;2294;51.818;8.484;2022-11-18T08:32:29;19.03;;;11.47;;
4563;SDS011;2294;51.818;8.484;2022-11-18T08:37:26;20.33;;;10.90;;
4563;SDS011;2294;51.818;8.484;2022-11-18T08:39:53;18.37;;;10.27;;
4563;SDS011;2294;51.818;8.484;2022-11-18T08:42:20;19.97;;;9.90;;
4563;SDS011;2294;51.818;8.484;2022-11-18T08:44:48;22.40;;;12.20;;
4563;SDS011;2294;51.818;8.484;2022-11-18T08:47:15;17.37;;;10.63;;
4563;SDS011;2294;51.818;8.484;2022-11-18T08:49:42;22.70;;;11.70;;
4563;SDS011;2294;51.818;8.484;2022-11-18T08:52:09;19.83;;;10.70;;
4563;SDS011;2294;51.818;8.484;2022-11-18T08:54:36;24.63;;;12.50;;
4563;SDS011;2294;51.818;8.484;2022-11-18T08:57:03;24.77;;;13.80;;
4563;SDS011;2294;51.818;8.484;2022-11-18T08:59:30;23.23;;;13.37;;
4563;SDS011;2294;51.818;8.484;2022-11-18T09:01:58;25.57;;;13.40;;
4563;SDS011;2294;51.818;8.484;2022-11-18T09:04:25;23.77;;;11.90;;
4563;SDS011;2294;51.818;8.484;2022-11-18T09:06:52;20.97;;;12.47;;
4563;SDS011;2294;51.818;8.484;2022-11-18T09:09:19;28.83;;;13.47;;
4563;SDS011;2294;51.818;8.484;2022-11-18T09:11:46;28.23;;;14.30;;
4563;SDS011;2294;51.818;8.484;2022-11-18T09:14:13;27.53;;;13.73;;
4563;SDS011;2294;51.818;8.484;2022-11-18T09:16:40;26.77;;;14.10;;
4563;SDS011;2294;51.818;8.484;2022-11-18T09:19:08;25.80;;;13.03;;
4563;SDS011;2294;51.818;8.484;2022-11-18T09:21:36;25.07;;;14.27;;
4563;SDS011;2294;51.818;8.484;2022-11-18T09:24:03;21.50;;;13.10;;
4563;SDS011;2294;51.818;8.484;2022-11-18T09:26:30;23.43;;;14.00;;
4563;SDS011;2294;51.818;8.484;2022-11-18T09:28:57;29.83;;;14.57;;
4563;SDS011;2294;51.818;8.484;2022-11-18T09:31:24;27.57;;;14.90;;
4563;SDS011;2294;51.818;8.484;2022-11-18T09:33:51;30.50;;;16.23;;
4563;SDS011;2294;51.818;8.484;2022-11-18T09:36:20;29.40;;;15.00;;
4563;SDS011;2294;51.818;8.484;2022-11-18T09:38:49;31.40;;;14.40;;
4563;SDS011;2294;51.818;8.484;2022-11-18T09:41:22;31.27;;;16.63;;
4563;SDS011;2294;51.818;8.484;2022-11-18T09:44:00;33.53;;;15.60;;
4563;SDS011;2294;51.818;8.484;2022-11-18T09:46:34;37.33;;;15.83;;
4563;SDS011;2294;51.818;8.484;2022-11-18T09:49:10;39.03;;;17.87;;
4563;SDS011;2294;51.818;8.484;2022-11-18T09:51:42;38.60;;;18.97;;
4563;SDS011;2294;51.818;8.484;2022-11-18T09:54:15;46.13;;;19.10;;
4563;SDS011;2294;51.818;8.484;2022-11-18T09:56:45;38.23;;;19.57;;
4563;SDS011;2294;51.818;8.484;2022-11-18T09:59:14;36.07;;;19.10;;
4563;SDS011;2294;51.818;8.484;2022-11-18T10:01:42;39.17;;;17.20;;
4563;SDS011;2294;51.818;8.484;2022-11-18T10:04:13;41.90;;;18.17;;
4563;SDS011;2294;51.818;8.484;2022-11-18T10:06:43;41.57;;;18.10;;
4563;SDS011;2294;51.818;8.484;2022-11-18T10:12:06;41.77;;;18.40;;
4563;SDS011;2294;51.818;8.484;2022-11-18T10:14:51;36.80;;;18.63;;
4563;SDS011;2294;51.818;8.484;2022-11-18T10:17:31;31.93;;;16.47;;
4563;SDS011;2294;51.818;8.484;2022-11-18T10:20:15;33.70;;;15.00;;
4563;SDS011;2294;51.818;8.484;2022-11-18T10:22:48;33.50;;;16.53;;
4563;SDS011;2294;51.818;8.484;2022-11-18T10:25:19;33.07;;;16.00;;
4563;SDS011;2294;51.818;8.484;2022-11-18T10:27:47;32.23;;;17.30;;
4563;SDS011;2294;51.818;8.484;2022-11-18T10:30:16;31.60;;;16.17;;
4563;SDS011;2294;51.818;8.484;2022-11-18T10:32:54;33.47;;;15.73;;
4563;SDS011;2294;51.818;8.484;2022-11-18T10:35:23;34.20;;;16.07;;
4563;SDS011;2294;51.818;8.484;2022-11-18T10:38:01;32.07;;;16.37;;
4563;SDS011;2294;51.818;8.484;2022-11-18T10:40:30;35.53;;;14.70;;
4563;SDS011;2294;51.818;8.484;2022-11-18T10:42:58;30.27;;;16.07;;
4563;SDS011;2294;51.818;8.484;2022-11-18T10:45:27;36.67;;;16.33;;
4563;SDS011;2294;51.818;8.484;2022-11-18T10:47:56;36.47;;;16.47;;
4563;SDS011;2294;51.818;8.484;2022-11-18T10:50:27;34.10;;;17.60;;
4563;SDS011;2294;51.818;8.484;2022-11-18T10:52:56;33.33;;;15.50;;
4563;SDS011;2294;51.818;8.484;2022-11-18T10:55:25;33.77;;;17.30;;
4563;SDS011;2294;51.818;8.484;2022-11-18T10:57:54;35.20;;;17.37;;
4563;SDS011;2294;51.818;8.484;2022-11-18T11:00:37;38.73;;;17.63;;
4563;SDS011;2294;51.818;8.484;2022-11-18T11:03:25;36.30;;;17.20;;
4563;SDS011;2294;51.818;8.484;2022-11-18T11:08:56;29.83;;;15.63;;
4563;SDS011;2294;51.818;8.484;2022-11-18T11:11:27;33.00;;;16.50;;
4563;SDS011;2294;51.818;8.484;2022-11-18T11:13:59;27.73;;;14.80;;
4563;SDS011;2294;51.818;8.484;2022-11-18T11:16:32;40.03;;;18.70;;
4563;SDS011;2294;51.818;8.484;2022-11-18T11:19:04;35.83;;;16.40;;
4563;SDS011;2294;51.818;8.484;2022-11-18T11:21:36;35.47;;;17.17;;
4563;SDS011;2294;51.818;8.484;2022-11-18T11:24:07;35.83;;;17.57;;
4563;SDS011;2294;51.818;8.484;2022-11-18T11:26:39;36.33;;;16.40;;
4563;SDS011;2294;51.818;8.484;2022-11-18T11:29:12;38.30;;;18.37;;
4563;SDS011;2294;51.818;8.484;2022-11-18T11:31:48;34.90;;;15.00;;
4563;SDS011;2294;51.818;8.484;2022-11-18T11:34:23;34.40;;;15.00;;
4563;SDS011;2294;51.818;8.484;2022-11-18T11:36:55;30.17;;;14.90;;
4563;SDS011;2294;51.818;8.484;2022-11-18T11:39:45;31.73;;;14.40;;
4563;SDS011;2294;51.818;8.484;2022-11-18T11:42:29;37.77;;;15.80;;
4563;SDS011;2294;51.818;8.484;2022-11-18T11:45:05;30.93;;;14.40;;
4563;SDS011;2294;51.818;8.484;2022-11-18T11:47:46;33.63;;;14.93;;
4563;SDS011;2294;51.818;8.484;2022-11-18T11:50:26;31.90;;;15.53;;
4563;SDS011;2294;51.818;8.484;2022-11-18T11:53:10;27.73;;;13.80;;
4563;SDS011;2294;51.818;8.484;2022-11-18T11:55:46;24.80;;;11.50;;
4563;SDS011;2294;51.818;8.484;2022-11-18T11:58:30;22.47;;;11.63;;
4563;SDS011;2294;51.818;8.484;2022-11-18T12:01:18;24.50;;;12.37;;
4563;SDS011;2294;51.818;8.484;2022-11-18T12:03:48;22.23;;;11.57;;
4563;SDS011;2294;51.818;8.484;2022-11-18T12:06:18;26.37;;;13.03;;
4563;SDS011;2294;51.818;8.484;2022-11-18T12:08:48;32.37;;;14.50;;
4563;SDS011;2294;51.818;8.484;2022-11-18T12:11:26;30.20;;;13.43;;
4563;SDS011;2294;51.818;8.484;2022-11-18T12:14:01;27.57;;;13.43;;
4563;SDS011;2294;51.818;8.484;2022-11-18T12:16:34;25.50;;;12.97;;
4563;SDS011;2294;51.818;8.484;2022-11-18T12:19:06;23.93;;;11.67;;
4563;SDS011;2294;51.818;8.484;2022-11-18T12:24:25;22.83;;;11.40;;
4563;SDS011;2294;51.818;8.484;2022-11-18T12:26:57;31.67;;;13.07;;
4563;SDS011;2294;51.818;8.484;2022-11-18T12:29:30;22.23;;;11.57;;
4563;SDS011;2294;51.818;8.484;2022-11-18T12:32:26;24.23;;;10.73;;
4563;SDS011;2294;51.818;8.484;2022-11-18T12:34:58;19.90;;;10.60;;
4563;SDS011;2294;51.818;8.484;2022-11-18T12:37:38;22.23;;;10.93;;
4563;SDS011;2294;51.818;8.484;2022-11-18T12:40:10;22.27;;;10.30;;
4563;SDS011;2294;51.818;8.484;2022-11-18T12:42:52;17.50;;;10.27;;
4563;SDS011;2294;51.818;8.484;2022-11-18T12:45:48;16.27;;;10.03;;
4563;SDS011;2294;51.818;8.484;2022-11-18T12:48:27;15.47;;;9.10;;
4563;SDS011;2294;51.818;8.484;2022-11-18T12:50:56;18.53;;;9.57;;
4563;SDS011;2294;51.818;8.484;2022-11-18T12:53:34;11.60;;;7.67;;
4563;SDS011;2294;51.818;8.484;2022-11-18T12:59:26;12.00;;;7.37;;
4563;SDS011;2294;51.818;8.484;2022-11-18T13:02:02;12.17;;;7.17;;
4563;SDS011;2294;51.818;8.484;2022-11-18T13:04:45;11.03;;;7.60;;
4563;SDS011;2294;51.818;8.484;2022-11-18T13:07:28;14.80;;;7.40;;
4563;SDS011;2294;51.818;8.484;2022-11-18T13:10:19;11.37;;;7.30;;
4563;SDS011;2294;51.818;8.484;2022-11-18T13:16:16;11.03;;;6.40;;
4563;SDS011;2294;51.818;8.484;2022-11-18T13:34:40;10.33;;;6.23;;
4563;SDS011;2294;51.818;8.484;2022-11-18T13:37:13;9.47;;;5.90;;
4563;SDS011;2294;51.818;8.484;2022-11-18T13:39:44;11.97;;;7.73;;
4563;SDS011;2294;51.818;8.484;2022-11-18T13:42:14;12.00;;;7.03;;
4563;SDS011;2294;51.818;8.484;2022-11-18T13:44:44;14.40;;;7.17;;
4563;SDS011;2294;51.818;8.484;2022-11-18T13:47:19;9.30;;;6.77;;
4563;SDS011;2294;51.818;8.484;2022-11-18T13:50:00;10.10;;;6.87;;
4563;SDS011;2294;51.818;8.484;2022-11-18T13:52:33;14.00;;;7.27;;
4563;SDS011;2294;51.818;8.484;2022-11-18T13:55:06;10.50;;;6.33;;
4563;SDS011;2294;51.818;8.484;2022-11-18T13:57:38;11.47;;;6.53;;
4563;SDS011;2294;51.818;8.484;2022-11-18T14:00:06;15.63;;;8.40;;
4563;SDS011;2294;51.818;8.484;2022-11-18T14:02:47;12.50;;;7.73;;
4563;SDS011;2294;51.818;8.484;2022-11-18T14:05:22;15.03;;;8.60;;
4563;SDS011;2294;51.818;8.484;2022-11-18T14:08:00;15.33;;;9.43;;
4563;SDS011;2294;51.818;8.484;2022-11-18T14:10:30;12.03;;;7.60;;
4563;SDS011;2294;51.818;8.484;2022-11-18T14:12:59;9.50;;;6.97;;
4563;SDS011;2294;51.818;8.484;2022-11-18T14:15:38;11.80;;;7.30;;
4563;SDS011;2294;51.818;8.484;2022-11-18T14:18:13;17.77;;;8.30;;
4563;SDS011;2294;51.818;8.484;2022-11-18T14:20:49;11.40;;;7.30;;
4563;SDS011;2294;51.818;8.484;2022-11-18T14:23:18;10.80;;;6.67;;
4563;SDS011;2294;51.818;8.484;2022-11-18T14:25:50;12.23;;;7.47;;
4563;SDS011;2294;51.818;8.484;2022-11-18T14:28:19;10.13;;;7.00;;
4563;SDS011;2294;51.818;8.484;2022-11-18T14:30:58;9.70;;;5.80;;
4563;SDS011;2294;51.818;8.484;2022-11-18T14:33:31;12.20;;;6.40;;
4563;SDS011;2294;51.818;8.484;2022-11-18T14:36:00;8.03;;;6.20;;
4563;SDS011;2294;51.818;8.484;2022-11-18T14:38:36;13.50;;;6.70;;
4563;SDS011;2294;51.818;8.484;2022-11-18T14:41:13;8.23;;;6.00;;
4563;SDS011;2294;51.818;8.484;2022-11-18T14:44:04;11.47;;;6.77;;
4563;SDS011;2294;51.818;8.484;2022-11-18T14:46:32;11.53;;;7.10;;
4563;SDS011;2294;51.818;8.484;2022-11-18T14:49:03;9.77;;;5.67;;
4563;SDS011;2294;51.818;8.484;2022-11-18T14:51:40;7.67;;;5.87;;
4563;SDS011;2294;51.818;8.484;2022-11-18T14:54:12;11.70;;;7.23;;
4563;SDS011;2294;51.818;8.484;2022-11-18T14:56:40;9.00;;;5.97;;
4563;SDS011;2294;51.818;8.484;2022-11-18T14:59:19;8.93;;;5.67;;
4563;SDS011;2294;51.818;8.484;2022-11-18T15:01:47;7.90;;;5.20;;
4563;SDS011;2294;51.818;8.484;2022-11-18T15:04:16;8.23;;;4.93;;
4563;SDS011;2294;51.818;8.484;2022-11-18T15:06:46;6.23;;;5.03;;
4563;SDS011;2294;51.818;8.484;2022-11-18T15:09:13;10.40;;;4.90;;
4563;SDS011;2294;51.818;8.484;2022-11-18T15:11:40;8.80;;;4.97;;
4563;SDS011;2294;51.818;8.484;2022-11-18T15:14:09;7.77;;;5.60;;
4563;SDS011;2294;51.818;8.484;2022-11-18T15:16:37;5.83;;;4.00;;
4563;SDS011;2294;51.818;8.484;2022-11-18T15:19:04;8.37;;;5.00;;
4563;SDS011;2294;51.818;8.484;2022-11-18T15:21:38;6.33;;;4.53;;
4563;SDS011;2294;51.818;8.484;2022-11-18T15:24:15;8.03;;;5.40;;
4563;SDS011;2294;51.818;8.484;2022-11-18T15:26:43;8.20;;;5.03;;
4563;SDS011;2294;51.818;8.484;2022-11-18T15:29:14;7.43;;;4.10;;
4563;SDS011;2294;51.818;8.484;2022-11-18T15:31:42;9.33;;;5.60;;
4563;SDS011;2294;51.818;8.484;2022-11-18T15:34:10;5.80;;;4.13;;
4563;SDS011;2294;51.818;8.484;2022-11-18T15:36:37;5.93;;;4.10;;
4563;SDS011;2294;51.818;8.484;2022-11-18T15:39:08;5.03;;;4.10;;
4563;SDS011;2294;51.818;8.484;2022-11-18T15:41:36;8.47;;;4.67;;
4563;SDS011;2294;51.818;8.484;2022-11-18T15:44:04;7.37;;;4.47;;
4563;SDS011;2294;51.818;8.484;2022-11-18T15:46:31;5.97;;;3.90;;
4563;SDS011;2294;51.818;8.484;2022-11-18T15:48:58;9.10;;;4.60;;
4563;SDS011;2294;51.818;8.484;2022-11-18T15:51:27;15.07;;;10.50;;
4563;SDS011;2294;51.818;8.484;2022-11-18T15:53:59;14.13;;;7.07;;
4563;SDS011;2294;51.818;8.484;2022-11-18T15:56:31;26.67;;;12.93;;